< < Back
Terminal Aerodrome Forecast


Current Version              Previous Versions:   1  2  3  4  5  6  7  8  9  

Terminal Aerodrome Forecast

736
FTUS42 KFFC 260344 AAA
TAFCSG
TAF AMD
KCSG 260344Z 2604/2624 00000KT P6SM FEW250
     FM261400 20004KT P6SM FEW150
     FM261700 20007KT P6SM SCT060=

Latest METAR

074
SAUS70 KWBC 260800 RRA
MTRCSG
METAR KCSG 260751Z AUTO 00000KT 10SM CLR 20/17 A3013 RMK AO2 SLP199
T02000172


USA.gov is the U.S. government's official web portal to all federal, state and local government web resources and services.